createdAt,value
2019-04-23T00:00:23.562Z,12.30
2019-04-23T00:02:56.644Z,12.30
2019-04-23T00:05:43.300Z,12.20
2019-04-23T00:08:08.103Z,12.30
2019-04-23T00:10:53.875Z,12.30
2019-04-23T00:12:59.388Z,12.30
2019-04-23T00:15:43.862Z,12.20
2019-04-23T00:18:19.440Z,12.10
2019-04-23T00:20:44.276Z,12.10
2019-04-23T00:23:10.918Z,12.00
2019-04-23T00:25:51.080Z,11.90
2019-04-23T00:28:20.557Z,12.00
2019-04-23T00:30:51.566Z,11.90
2019-04-23T00:35:52.471Z,11.90
2019-04-23T00:38:26.555Z,11.90
2019-04-23T00:43:30.579Z,11.90
2019-04-23T00:45:56.439Z,11.90
2019-04-23T00:48:36.371Z,11.90
2019-04-23T00:51:13.810Z,11.90
2019-04-23T00:53:28.310Z,11.90
2019-04-23T00:56:20.621Z,11.90
2019-04-23T00:58:38.094Z,11.80
2019-04-23T01:01:04.396Z,11.80
2019-04-23T01:03:29.488Z,11.80
2019-04-23T01:06:18.192Z,11.80
2019-04-23T01:08:36.791Z,11.70
2019-04-23T01:11:13.469Z,11.70
2019-04-23T01:16:28.625Z,11.60
2019-04-23T01:21:03.473Z,11.50
2019-04-23T01:23:57.824Z,11.50
2019-04-23T01:26:48.527Z,11.40
2019-04-23T01:29:20.171Z,11.40
2019-04-23T01:31:51.742Z,11.40
2019-04-23T01:34:26.014Z,11.40
2019-04-23T01:36:54.181Z,11.50
2019-04-23T01:39:23.056Z,11.50
2019-04-23T01:42:07.947Z,11.50
2019-04-23T01:44:36.690Z,11.60
2019-04-23T01:47:01.254Z,11.60
2019-04-23T01:49:41.624Z,11.70
2019-04-23T01:52:00.343Z,11.80
2019-04-23T01:54:30.548Z,11.80
2019-04-23T01:57:04.057Z,11.90
2019-04-23T01:59:38.613Z,11.80
2019-04-23T02:02:14.068Z,11.70
2019-04-23T02:04:44.514Z,11.70
2019-04-23T02:07:21.809Z,11.80
2019-04-23T02:09:48.247Z,11.70
2019-04-23T02:12:22.322Z,11.70
2019-04-23T02:14:51.767Z,11.60
2019-04-23T02:17:24.763Z,11.60
2019-04-23T02:19:51.314Z,11.60
2019-04-23T02:22:31.700Z,11.60
2019-04-23T02:24:54.590Z,11.60
2019-04-23T02:27:29.989Z,11.50
2019-04-23T02:30:15.791Z,11.50
2019-04-23T02:32:39.848Z,11.40
2019-04-23T02:40:26.708Z,11.50
2019-04-23T02:45:09.456Z,11.50
2019-04-23T02:47:42.612Z,11.40
2019-04-23T02:50:34.622Z,11.40
2019-04-23T02:52:48.850Z,11.40
2019-04-23T02:55:18.081Z,11.30
2019-04-23T02:57:41.710Z,11.40
2019-04-23T03:02:47.861Z,11.40
2019-04-23T03:05:44.714Z,11.30
2019-04-23T03:07:59.931Z,11.30
2019-04-23T03:10:24.681Z,11.30
2019-04-23T03:18:33.277Z,11.20
2019-04-23T03:21:01.852Z,11.20
2019-04-23T03:23:31.888Z,11.20
2019-04-23T03:26:04.344Z,11.20
2019-04-23T03:28:39.660Z,11.10
2019-04-23T03:36:10.607Z,11.00
2019-04-23T03:41:15.825Z,11.00
2019-04-23T03:46:17.794Z,11.00
2019-04-23T03:51:09.629Z,11.00
2019-04-23T03:54:04.023Z,10.90
2019-04-23T03:58:44.892Z,10.90
2019-04-23T04:01:27.516Z,10.80
2019-04-23T04:04:12.850Z,10.80
2019-04-23T04:06:29.341Z,10.80
2019-04-23T04:09:17.476Z,10.80
2019-04-23T04:14:23.440Z,10.70
2019-04-23T04:16:42.660Z,10.70
2019-04-23T04:21:52.984Z,10.70
2019-04-23T04:24:21.748Z,10.60
2019-04-23T04:26:51.072Z,10.70
2019-04-23T04:29:29.963Z,10.70
2019-04-23T04:32:00.560Z,10.70
2019-04-23T04:34:43.800Z,10.70
2019-04-23T04:37:18.405Z,10.70
2019-04-23T04:44:38.251Z,10.80
2019-04-23T04:49:36.561Z,10.80
2019-04-23T04:57:12.731Z,10.90
2019-04-23T04:59:55.642Z,10.90
2019-04-23T05:02:09.681Z,11.00
2019-04-23T05:04:37.834Z,11.00
2019-04-23T05:09:56.923Z,11.10
2019-04-23T05:12:13.118Z,11.20
2019-04-23T05:14:45.328Z,11.20
2019-04-23T05:19:45.724Z,11.60
2019-04-23T05:22:16.598Z,12.00
2019-04-23T05:24:43.336Z,12.10
2019-04-23T05:27:12.340Z,12.10
2019-04-23T05:29:46.704Z,12.10
2019-04-23T05:32:12.076Z,12.30
2019-04-23T05:34:50.089Z,12.40
2019-04-23T05:37:25.815Z,12.70
2019-04-23T05:39:49.295Z,13.30
2019-04-23T05:42:19.363Z,14.30
2019-04-23T05:45:08.327Z,15.10
2019-04-23T05:49:55.080Z,15.20
2019-04-23T05:52:24.019Z,15.10
2019-04-23T05:55:01.548Z,15.20
2019-04-23T05:57:28.537Z,14.60
2019-04-23T06:00:02.421Z,14.40
2019-04-23T06:02:35.267Z,14.60
2019-04-23T06:05:04.212Z,14.60
2019-04-23T06:07:35.507Z,14.30
2019-04-23T06:10:06.371Z,14.40
2019-04-23T06:15:05.002Z,14.90
2019-04-23T06:17:53.931Z,16.00
2019-04-23T06:20:10.166Z,16.80
2019-04-23T06:22:45.504Z,17.20
2019-04-23T06:25:22.002Z,17.70
2019-04-23T06:27:45.979Z,18.40
2019-04-23T06:30:17.494Z,18.40
2019-04-23T06:32:44.435Z,18.30
2019-04-23T06:35:20.499Z,18.30
2019-04-23T06:38:22.029Z,18.30
2019-04-23T06:40:22.224Z,18.30
2019-04-23T06:43:13.560Z,18.60
2019-04-23T06:45:37.834Z,19.00
2019-04-23T06:48:20.326Z,19.30
2019-04-23T06:50:52.686Z,18.60
2019-04-23T06:53:18.460Z,18.40
2019-04-23T06:55:50.242Z,18.50
2019-04-23T06:58:30.684Z,18.90
2019-04-23T07:03:36.081Z,20.10
2019-04-23T07:06:17.216Z,20.10
2019-04-23T07:08:56.359Z,20.00
2019-04-23T07:11:16.771Z,19.40
2019-04-23T07:13:53.206Z,19.10
2019-04-23T07:16:11.378Z,18.90
2019-04-23T07:18:41.566Z,19.20
2019-04-23T07:21:17.818Z,19.20
2019-04-23T07:23:54.580Z,18.80
2019-04-23T07:28:59.227Z,18.90
2019-04-23T07:31:35.089Z,19.00
2019-04-23T07:36:28.883Z,18.00
2019-04-23T07:44:40.328Z,17.10
2019-04-23T07:47:11.531Z,16.70
2019-04-23T07:49:43.385Z,16.30
2019-04-23T07:52:10.662Z,16.00
2019-04-23T07:54:38.701Z,15.90
2019-04-23T07:59:44.007Z,15.60
2019-04-23T08:02:16.021Z,15.60
2019-04-23T08:04:44.691Z,15.40
2019-04-23T08:07:18.215Z,15.30
2019-04-23T08:09:47.750Z,15.20
2019-04-23T08:12:23.367Z,15.30
2019-04-23T08:14:46.931Z,15.30
2019-04-23T08:17:20.666Z,15.40
2019-04-23T08:25:10.986Z,15.60
2019-04-23T08:27:38.353Z,15.80
2019-04-23T08:30:03.344Z,15.90
2019-04-23T08:32:27.935Z,16.00
2019-04-23T08:35:10.841Z,16.20
2019-04-23T08:37:58.474Z,16.20
2019-04-23T08:40:08.185Z,16.20
2019-04-23T08:42:49.616Z,16.20
2019-04-23T08:45:28.578Z,16.30
2019-04-23T08:48:09.007Z,16.30
2019-04-23T08:53:18.299Z,16.40
2019-04-23T08:58:07.910Z,16.40
2019-04-23T09:00:55.326Z,16.50
2019-04-23T09:03:18.862Z,16.70
2019-04-23T09:15:49.802Z,16.90
2019-04-23T09:18:23.055Z,17.00
2019-04-23T09:20:53.025Z,17.10
2019-04-23T09:23:31.029Z,17.10
2019-04-23T09:25:54.360Z,17.10
2019-04-23T09:28:34.911Z,17.20
2019-04-23T09:31:24.698Z,17.30
2019-04-23T09:33:46.902Z,17.40
2019-04-23T09:36:25.573Z,17.40
2019-04-23T09:38:52.579Z,17.50
2019-04-23T09:44:39.849Z,17.80
2019-04-23T09:46:36.383Z,18.00
2019-04-23T09:49:15.253Z,17.80
2019-04-23T09:51:46.918Z,17.60
2019-04-23T09:59:28.591Z,18.00
2019-04-23T10:01:37.516Z,18.00
2019-04-23T10:04:04.082Z,18.10
2019-04-23T10:06:26.559Z,18.20
2019-04-23T10:08:57.839Z,18.20
2019-04-23T10:11:26.177Z,17.90
2019-04-23T10:13:56.625Z,17.90
2019-04-23T10:16:30.126Z,17.90
2019-04-23T10:18:59.341Z,18.00
2019-04-23T10:21:31.196Z,18.20
2019-04-23T10:24:01.401Z,18.30
2019-04-23T10:26:32.447Z,18.20
2019-04-23T10:29:05.415Z,18.20
2019-04-23T10:31:35.624Z,18.20
2019-04-23T10:34:06.393Z,18.20
2019-04-23T10:36:38.254Z,18.40
2019-04-23T10:39:17.104Z,18.40
2019-04-23T10:41:42.516Z,18.40
2019-04-23T10:44:17.234Z,18.40
2019-04-23T10:47:16.549Z,18.60
2019-04-23T10:54:54.219Z,18.50
2019-04-23T10:57:28.233Z,18.60
2019-04-23T10:59:53.448Z,18.60
2019-04-23T11:07:31.312Z,18.90
2019-04-23T11:12:42.081Z,19.10
2019-04-23T11:17:45.586Z,18.80
2019-04-23T11:20:26.116Z,18.80
2019-04-23T11:25:28.080Z,19.00
2019-04-23T11:27:59.748Z,19.00
2019-04-23T11:36:01.796Z,18.90
2019-04-23T11:38:35.237Z,19.20
2019-04-23T11:40:35.313Z,19.00
2019-04-23T11:43:14.329Z,19.10
2019-04-23T11:45:48.545Z,19.10
2019-04-23T11:48:32.924Z,19.20
2019-04-23T11:53:24.159Z,19.20
2019-04-23T11:58:23.658Z,19.30
2019-04-23T12:01:11.788Z,19.30
2019-04-23T12:03:54.041Z,19.40
2019-04-23T12:06:25.233Z,19.30
2019-04-23T12:08:58.908Z,19.20
2019-04-23T12:14:37.476Z,19.20
2019-04-23T12:19:52.416Z,19.40
2019-04-23T12:22:01.174Z,19.40
2019-04-23T12:24:58.853Z,19.50
2019-04-23T12:29:37.471Z,19.50
2019-04-23T12:37:40.677Z,19.70
2019-04-23T12:40:21.148Z,19.70
2019-04-23T12:45:25.992Z,19.70
2019-04-23T12:48:02.220Z,19.70
2019-04-23T12:53:00.638Z,19.90
2019-04-23T12:58:01.635Z,19.80
2019-04-23T13:00:48.123Z,19.70
2019-04-23T13:03:13.508Z,19.80
2019-04-23T13:05:33.885Z,19.70
2019-04-23T13:08:30.439Z,19.70
2019-04-23T13:13:24.274Z,19.70
2019-04-23T13:16:03.016Z,19.60
2019-04-23T13:18:17.293Z,19.80
2019-04-23T13:20:42.564Z,19.80
2019-04-23T13:23:23.721Z,19.80
2019-04-23T13:26:16.115Z,19.80
2019-04-23T13:29:02.855Z,19.90
2019-04-23T13:33:45.507Z,19.90
2019-04-23T13:36:24.340Z,19.80
2019-04-23T13:38:47.288Z,19.70
2019-04-23T13:41:20.409Z,19.80
2019-04-23T13:43:48.366Z,19.90
2019-04-23T13:46:23.067Z,19.80
2019-04-23T13:48:56.170Z,19.70
2019-04-23T13:51:39.968Z,19.80
2019-04-23T13:53:59.274Z,19.90
2019-04-23T13:56:56.048Z,20.10
2019-04-23T13:59:26.504Z,20.10
2019-04-23T14:01:42.994Z,20.10
2019-04-23T14:04:21.261Z,20.00
2019-04-23T14:06:51.453Z,20.00
2019-04-23T14:09:31.820Z,19.90
2019-04-23T14:11:46.718Z,19.90
2019-04-23T14:14:38.160Z,19.90
2019-04-23T14:17:04.526Z,19.80
2019-04-23T14:19:16.864Z,20.00
2019-04-23T14:22:09.744Z,20.10
2019-04-23T14:24:26.845Z,20.10
2019-04-23T14:27:03.858Z,20.10
2019-04-23T14:29:38.871Z,20.20
2019-04-23T14:32:10.400Z,20.20
2019-04-23T14:34:35.287Z,20.10
2019-04-23T14:37:06.228Z,20.10
2019-04-23T14:39:43.683Z,20.10
2019-04-23T14:42:21.435Z,20.20
2019-04-23T14:44:41.552Z,20.20
2019-04-23T14:47:24.286Z,20.10
2019-04-23T14:50:12.615Z,20.30
2019-04-23T14:52:27.508Z,20.30
2019-04-23T14:55:36.196Z,20.30
2019-04-23T14:57:35.268Z,20.20
2019-04-23T15:00:01.612Z,20.20
2019-04-23T15:05:03.675Z,20.20
2019-04-23T15:07:31.209Z,20.20
2019-04-23T15:10:08.499Z,20.40
2019-04-23T15:15:21.114Z,20.40
2019-04-23T15:17:34.180Z,20.30
2019-04-23T15:20:08.116Z,20.20
2019-04-23T15:22:54.498Z,20.20
2019-04-23T15:28:06.042Z,20.40
2019-04-23T15:30:03.759Z,20.50
2019-04-23T15:32:54.501Z,20.50
2019-04-23T15:35:26.231Z,20.40
2019-04-23T15:38:16.284Z,20.50
2019-04-23T15:42:58.451Z,20.50
2019-04-23T15:45:21.265Z,20.40
2019-04-23T15:47:58.802Z,20.40
2019-04-23T15:50:28.360Z,20.30
2019-04-23T15:52:58.839Z,20.40
2019-04-23T15:55:27.884Z,20.40
2019-04-23T15:58:09.930Z,20.40
2019-04-23T16:00:25.284Z,20.50
2019-04-23T16:02:34.210Z,20.50
2019-04-23T16:05:09.412Z,20.40
2019-04-23T16:07:54.688Z,20.30
2019-04-23T16:10:44.577Z,20.20
2019-04-23T16:13:13.297Z,20.20
2019-04-23T16:15:43.461Z,20.30
2019-04-23T16:18:23.613Z,20.40
2019-04-23T16:20:58.005Z,20.50
2019-04-23T16:23:21.424Z,20.50
2019-04-23T16:25:51.039Z,20.60
2019-04-23T16:28:38.461Z,20.60
2019-04-23T16:31:00.840Z,20.70
2019-04-23T16:33:16.287Z,20.60
2019-04-23T16:36:05.282Z,20.40
2019-04-23T16:41:13.776Z,20.20
2019-04-23T16:43:33.976Z,20.20
2019-04-23T16:46:07.235Z,20.20
2019-04-23T16:51:18.132Z,20.10
2019-04-23T16:53:54.161Z,20.00
2019-04-23T16:58:53.948Z,20.00
2019-04-23T17:01:21.355Z,20.00
2019-04-23T17:03:52.598Z,19.90
2019-04-23T17:06:15.907Z,19.90
2019-04-23T17:09:01.747Z,19.80
2019-04-23T17:11:20.514Z,19.80
2019-04-23T17:13:54.318Z,19.70
2019-04-23T17:16:21.876Z,19.70
2019-04-23T17:18:53.828Z,19.70
2019-04-23T17:21:23.824Z,19.60
2019-04-23T17:24:08.060Z,19.60
2019-04-23T17:26:30.645Z,19.40
2019-04-23T17:29:12.261Z,19.40
2019-04-23T17:31:35.161Z,19.50
2019-04-23T17:34:12.617Z,19.30
2019-04-23T17:36:39.940Z,19.30
2019-04-23T17:39:14.584Z,19.30
2019-04-23T17:42:00.132Z,19.20
2019-04-23T17:46:50.545Z,19.10
2019-04-23T17:49:33.714Z,19.10
2019-04-23T17:54:26.944Z,18.90
2019-04-23T17:57:01.398Z,18.90
2019-04-23T17:59:28.212Z,18.80
2019-04-23T18:02:27.237Z,18.80
2019-04-23T18:04:34.763Z,18.80
2019-04-23T18:07:06.175Z,18.60
2019-04-23T18:09:39.739Z,18.60
2019-04-23T18:12:12.973Z,18.60
2019-04-23T18:14:36.806Z,18.50
2019-04-23T18:17:13.184Z,18.40
2019-04-23T18:19:37.631Z,18.30
2019-04-23T18:22:24.614Z,18.30
2019-04-23T18:25:14.085Z,18.30
2019-04-23T18:30:25.965Z,18.20
2019-04-23T18:33:41.826Z,18.10
2019-04-23T18:35:35.712Z,18.10
2019-04-23T18:41:01.249Z,18.00
2019-04-23T18:43:29.547Z,18.00
2019-04-23T18:51:10.491Z,17.80
2019-04-23T18:58:58.206Z,17.70
2019-04-23T19:01:25.360Z,17.60
2019-04-23T19:09:10.425Z,17.50
2019-04-23T19:12:09.191Z,17.50
2019-04-23T19:17:37.186Z,17.50
2019-04-23T19:19:41.946Z,17.50
2019-04-23T19:27:26.617Z,17.50
2019-04-23T19:29:43.867Z,17.50
2019-04-23T19:32:28.111Z,17.50
2019-04-23T19:34:43.922Z,17.50
2019-04-23T19:37:17.143Z,17.50
2019-04-23T19:39:43.209Z,17.40
2019-04-23T19:42:15.571Z,17.40
2019-04-23T19:44:47.595Z,17.40
2019-04-23T19:47:33.250Z,17.30
2019-04-23T19:49:48.441Z,17.30
2019-04-23T19:52:36.586Z,17.20
2019-04-23T19:55:00.048Z,17.10
2019-04-23T19:57:36.922Z,17.10
2019-04-23T20:02:55.333Z,17.00
2019-04-23T20:04:59.481Z,17.00
2019-04-23T20:10:08.346Z,16.90
2019-04-23T20:12:40.724Z,16.80
2019-04-23T20:15:07.540Z,16.70
2019-04-23T20:17:54.573Z,16.70
2019-04-23T20:20:19.649Z,16.60
2019-04-23T20:22:52.023Z,16.60
2019-04-23T20:28:01.961Z,16.50
2019-04-23T20:30:57.592Z,16.50
2019-04-23T20:33:51.262Z,16.40
2019-04-23T20:35:52.412Z,16.40
2019-04-23T20:43:14.796Z,16.30
2019-04-23T20:45:54.582Z,16.20
2019-04-23T20:48:28.539Z,16.20
2019-04-23T20:50:50.792Z,16.10
2019-04-23T20:53:28.364Z,16.10
2019-04-23T20:58:31.323Z,16.00
2019-04-23T21:01:18.861Z,15.90
2019-04-23T21:03:51.916Z,15.90
2019-04-23T21:09:24.548Z,15.80
2019-04-23T21:11:12.493Z,15.70
2019-04-23T21:16:21.124Z,15.70
2019-04-23T21:18:55.139Z,15.60
2019-04-23T21:21:28.113Z,15.60
2019-04-23T21:23:53.727Z,15.60
2019-04-23T21:26:31.274Z,15.50
2019-04-23T21:29:15.333Z,15.50
2019-04-23T21:31:31.479Z,15.40
2019-04-23T21:34:07.853Z,15.40
2019-04-23T21:36:35.507Z,15.40
2019-04-23T21:39:38.585Z,15.30
2019-04-23T21:42:01.941Z,15.20
2019-04-23T21:44:26.986Z,15.10
2019-04-23T21:47:01.221Z,15.10
2019-04-23T21:49:41.220Z,14.90
2019-04-23T21:51:57.598Z,14.90
2019-04-23T21:54:35.315Z,14.80
2019-04-23T21:56:58.714Z,14.70
2019-04-23T21:59:34.157Z,14.70
2019-04-23T22:02:05.306Z,14.60
2019-04-23T22:04:41.491Z,14.60
2019-04-23T22:07:29.359Z,14.50
2019-04-23T22:12:13.567Z,14.50
2019-04-23T22:14:45.691Z,14.40
2019-04-23T22:19:49.919Z,14.30
2019-04-23T22:22:10.868Z,14.30
2019-04-23T22:24:48.784Z,14.20
2019-04-23T22:27:32.641Z,14.20
2019-04-23T22:32:25.927Z,14.10
2019-04-23T22:34:57.246Z,14.10
2019-04-23T22:37:23.508Z,14.10
2019-04-23T22:39:58.982Z,14.00
2019-04-23T22:42:44.816Z,14.00
2019-04-23T22:47:33.864Z,14.00
2019-04-23T22:50:06.289Z,14.00
2019-04-23T22:52:31.438Z,13.90
2019-04-23T22:57:56.710Z,13.90
2019-04-23T23:03:03.720Z,13.80
2019-04-23T23:08:20.355Z,13.80
2019-04-23T23:10:51.911Z,13.70
2019-04-23T23:13:22.631Z,13.70
2019-04-23T23:15:54.585Z,13.60
2019-04-23T23:23:21.552Z,13.60
2019-04-23T23:26:04.330Z,13.60
2019-04-23T23:28:31.580Z,13.60
2019-04-23T23:33:36.217Z,13.50
2019-04-23T23:36:05.876Z,13.50
2019-04-23T23:43:41.783Z,13.50
2019-04-23T23:48:35.754Z,13.50
2019-04-23T23:53:51.670Z,13.50
2019-04-23T23:59:03.689Z,13.50
